Time;durP1;ratioP1;P1;durP2;ratioP2;P2;SDS_P1;SDS_P2;PMS_P1;PMS_P2;Temp;Humidity;BMP_temperature;BMP_pressure;BME280_temperature;BME280_humidity;BME280_pressure;Samples;Min_cycle;Max_cycle;Signal;HPM_P1;HPM_P2
2023/07/24 00:02:39;;;;;;;17.35;9.77;;;;;;;;;;6321393;28;20056;-80
2023/07/24 00:05:40;;;;;;;14.32;8.73;;;;;;;;;;6321557;28;20071;-81
2023/07/24 00:08:42;;;;;;;17.02;9.20;;;;;;;;;;6320614;28;20107;-82
2023/07/24 00:11:43;;;;;;;16.58;9.20;;;;;;;;;;6317918;28;20217;-82
2023/07/24 00:14:46;;;;;;;15.05;9.10;;;;;;;;;;6322579;27;20043;-80
2023/07/24 00:17:48;;;;;;;14.75;8.88;;;;;;;;;;6320391;28;20051;-82
2023/07/24 00:20:49;;;;;;;17.35;9.07;;;;;;;;;;6320858;28;20101;-79
2023/07/24 00:23:51;;;;;;;14.07;8.10;;;;;;;;;;6319726;28;20048;-82
2023/07/24 00:26:52;;;;;;;12.73;8.35;;;;;;;;;;6318903;28;20058;-80
2023/07/24 00:29:55;;;;;;;15.57;9.48;;;;;;;;;;6319427;28;20059;-80
2023/07/24 00:32:56;;;;;;;13.32;9.05;;;;;;;;;;6320588;28;20131;-80
2023/07/24 00:35:58;;;;;;;16.30;8.88;;;;;;;;;;6319462;28;20051;-80
2023/07/24 00:38:59;;;;;;;12.50;8.63;;;;;;;;;;6321918;27;20111;-80
2023/07/24 00:42:01;;;;;;;14.15;9.32;;;;;;;;;;6319436;28;20354;-80
2023/07/24 00:45:04;;;;;;;13.32;8.95;;;;;;;;;;6314958;28;20443;-80
2023/07/24 00:48:06;;;;;;;15.18;9.15;;;;;;;;;;6318445;28;20052;-79
2023/07/24 00:51:07;;;;;;;14.20;9.57;;;;;;;;;;6321228;28;20274;-79
2023/07/24 00:54:09;;;;;;;14.93;8.63;;;;;;;;;;6321193;28;20044;-79
2023/07/24 00:57:10;;;;;;;14.98;9.60;;;;;;;;;;6318833;28;20056;-79
2023/07/24 01:00:14;;;;;;;14.45;9.27;;;;;;;;;;6317675;28;20044;-79
2023/07/24 01:03:15;;;;;;;16.27;9.05;;;;;;;;;;6322176;28;20048;-79
2023/07/24 01:06:17;;;;;;;16.90;8.90;;;;;;;;;;6319057;28;20109;-79
2023/07/24 01:09:18;;;;;;;14.85;9.32;;;;;;;;;;6320785;28;20056;-79
2023/07/24 01:12:23;;;;;;;13.93;8.13;;;;;;;;;;6307557;28;20062;-79
2023/07/24 01:15:32;;;;;;;13.23;8.63;;;;;;;;;;6314929;28;20098;-79
2023/07/24 01:18:36;;;;;;;14.68;8.52;;;;;;;;;;6318172;28;21574;-79
2023/07/24 01:21:45;;;;;;;14.80;8.52;;;;;;;;;;6315968;28;20059;-79
2023/07/24 01:24:53;;;;;;;13.95;9.07;;;;;;;;;;6320852;27;20086;-79
2023/07/24 01:27:56;;;;;;;13.38;8.68;;;;;;;;;;6315124;28;20040;-79
2023/07/24 01:30:57;;;;;;;14.48;9.02;;;;;;;;;;6315487;28;20294;-79
2023/07/24 01:33:59;;;;;;;12.60;8.10;;;;;;;;;;6320633;28;20063;-79
2023/07/24 01:37:00;;;;;;;14.35;8.18;;;;;;;;;;6321327;28;20058;-79
2023/07/24 01:40:03;;;;;;;12.48;8.50;;;;;;;;;;6318247;28;20051;-79
2023/07/24 01:43:05;;;;;;;13.73;8.55;;;;;;;;;;6317651;28;20048;-79
2023/07/24 01:46:08;;;;;;;13.25;8.77;;;;;;;;;;6317509;28;20040;-79
2023/07/24 01:49:09;;;;;;;15.80;9.23;;;;;;;;;;6319096;28;20224;-79
2023/07/24 01:52:11;;;;;;;13.98;8.48;;;;;;;;;;6320578;28;20386;-79
2023/07/24 01:55:12;;;;;;;13.55;9.32;;;;;;;;;;6324656;28;20044;-79
2023/07/24 01:58:15;;;;;;;13.85;8.75;;;;;;;;;;6328026;28;20052;-79
2023/07/24 02:01:17;;;;;;;17.30;9.25;;;;;;;;;;6324515;28;20322;-79
2023/07/24 02:04:21;;;;;;;13.52;9.55;;;;;;;;;;6321902;28;20905;-79
2023/07/24 02:07:23;;;;;;;14.40;9.73;;;;;;;;;;6328163;28;20051;-79
2023/07/24 02:10:24;;;;;;;14.45;9.32;;;;;;;;;;6323611;28;20052;-79
2023/07/24 02:13:27;;;;;;;14.63;9.75;;;;;;;;;;6324072;28;20054;-79
2023/07/24 02:16:29;;;;;;;15.02;9.68;;;;;;;;;;6323700;28;20109;-79
2023/07/24 02:19:30;;;;;;;15.05;9.05;;;;;;;;;;6324468;28;20279;-79
2023/07/24 02:22:32;;;;;;;15.35;9.52;;;;;;;;;;6322945;28;20040;-79
2023/07/24 02:25:33;;;;;;;13.27;8.68;;;;;;;;;;6323252;28;20324;-79
2023/07/24 02:28:36;;;;;;;17.13;10.57;;;;;;;;;;6322231;28;20063;-79
2023/07/24 02:31:38;;;;;;;15.90;10.35;;;;;;;;;;6323587;28;20051;-79
2023/07/24 02:34:39;;;;;;;14.68;9.57;;;;;;;;;;6325614;28;20055;-79
2023/07/24 02:37:40;;;;;;;15.38;9.20;;;;;;;;;;6323240;28;20059;-79
2023/07/24 02:40:42;;;;;;;15.70;10.00;;;;;;;;;;6326022;28;20043;-79
2023/07/24 02:43:45;;;;;;;15.95;9.63;;;;;;;;;;6320882;28;20051;-79
2023/07/24 02:46:46;;;;;;;14.65;9.23;;;;;;;;;;6317632;28;20053;-79
2023/07/24 02:49:48;;;;;;;14.52;9.60;;;;;;;;;;6318639;28;20063;-79
2023/07/24 02:52:49;;;;;;;13.85;9.45;;;;;;;;;;6323603;28;20051;-79
2023/07/24 02:55:50;;;;;;;14.43;9.38;;;;;;;;;;6322172;28;20063;-79
2023/07/24 02:58:53;;;;;;;13.75;8.68;;;;;;;;;;6322103;28;20052;-79
2023/07/24 03:01:55;;;;;;;14.95;9.63;;;;;;;;;;6319956;28;20331;-79
2023/07/24 03:04:57;;;;;;;14.43;9.73;;;;;;;;;;6320321;28;20050;-80
2023/07/24 03:07:58;;;;;;;14.55;8.95;;;;;;;;;;6322302;28;20047;-79
2023/07/24 03:11:00;;;;;;;13.82;8.00;;;;;;;;;;6322564;28;20090;-79
2023/07/24 03:14:03;;;;;;;15.90;9.32;;;;;;;;;;6319528;28;20328;-79
2023/07/24 03:17:04;;;;;;;13.60;8.90;;;;;;;;;;6325396;28;20047;-78
2023/07/24 03:20:10;;;;;;;13.70;9.45;;;;;;;;;;6319879;28;22014;-79
2023/07/24 03:23:11;;;;;;;16.23;9.52;;;;;;;;;;6322163;28;20542;-78
2023/07/24 03:26:12;;;;;;;14.95;9.27;;;;;;;;;;6320059;28;20051;-78
2023/07/24 03:29:15;;;;;;;15.07;9.73;;;;;;;;;;6321770;28;20036;-79
2023/07/24 03:32:17;;;;;;;16.77;9.85;;;;;;;;;;6318868;28;20442;-79
2023/07/24 03:35:18;;;;;;;13.75;9.07;;;;;;;;;;6320418;28;20252;-79
2023/07/24 03:38:20;;;;;;;17.38;9.95;;;;;;;;;;6322457;28;20044;-79
2023/07/24 03:41:22;;;;;;;18.17;9.45;;;;;;;;;;6321505;28;20056;-79
2023/07/24 03:44:24;;;;;;;15.88;8.68;;;;;;;;;;6321576;28;20915;-78
2023/07/24 03:47:26;;;;;;;15.80;9.27;;;;;;;;;;6322152;28;20153;-79
2023/07/24 03:50:30;;;;;;;14.20;9.00;;;;;;;;;;6319105;28;20137;-79
2023/07/24 03:53:31;;;;;;;14.48;9.38;;;;;;;;;;6319901;28;20056;-79
2023/07/24 03:56:32;;;;;;;15.32;9.43;;;;;;;;;;6320860;28;20059;-79
2023/07/24 03:59:35;;;;;;;14.45;9.25;;;;;;;;;;6321552;28;20271;-79
2023/07/24 04:02:38;;;;;;;14.88;9.60;;;;;;;;;;6318385;28;20052;-79
2023/07/24 04:05:39;;;;;;;12.55;8.50;;;;;;;;;;6320261;28;20056;-79
2023/07/24 04:08:40;;;;;;;14.70;8.60;;;;;;;;;;6322382;28;20051;-79
2023/07/24 04:11:42;;;;;;;17.58;9.95;;;;;;;;;;6322607;28;20051;-79
2023/07/24 04:14:45;;;;;;;19.13;10.18;;;;;;;;;;6324817;28;20040;-79
2023/07/24 04:17:46;;;;;;;16.05;8.73;;;;;;;;;;6325160;28;20338;-79
2023/07/24 04:20:48;;;;;;;16.58;9.60;;;;;;;;;;6321639;28;20066;-78
2023/07/24 04:23:49;;;;;;;13.48;8.93;;;;;;;;;;6320156;28;20056;-78
2023/07/24 04:26:51;;;;;;;16.25;9.63;;;;;;;;;;6319090;28;20429;-77
2023/07/24 04:29:53;;;;;;;16.30;9.73;;;;;;;;;;6319208;28;20051;-78
2023/07/24 04:32:55;;;;;;;14.93;10.10;;;;;;;;;;6319035;28;20168;-78
2023/07/24 04:35:56;;;;;;;15.70;9.65;;;;;;;;;;6318732;28;20240;-78
2023/07/24 04:38:58;;;;;;;15.70;9.50;;;;;;;;;;6319628;28;20062;-78
2023/07/24 04:41:59;;;;;;;15.20;10.02;;;;;;;;;;6317982;28;20052;-78
2023/07/24 04:45:02;;;;;;;14.32;9.38;;;;;;;;;;6318500;28;20250;-78
2023/07/24 04:48:04;;;;;;;14.40;9.38;;;;;;;;;;6322727;28;20052;-78
2023/07/24 04:51:05;;;;;;;15.30;8.77;;;;;;;;;;6318988;28;20055;-78
2023/07/24 04:54:07;;;;;;;16.38;9.02;;;;;;;;;;6318531;28;20057;-78
2023/07/24 04:57:08;;;;;;;16.42;9.32;;;;;;;;;;6323647;28;20076;-78
2023/07/24 05:00:12;;;;;;;13.85;9.00;;;;;;;;;;6318344;28;20056;-78
2023/07/24 05:03:16;;;;;;;14.63;9.15;;;;;;;;;;6321576;28;20409;-78
2023/07/24 05:06:17;;;;;;;15.77;9.90;;;;;;;;;;6316309;28;20070;-81
2023/07/24 05:09:19;;;;;;;14.45;9.13;;;;;;;;;;6318602;28;20048;-84
2023/07/24 05:12:20;;;;;;;15.98;9.13;;;;;;;;;;6317283;28;20324;-86
2023/07/24 05:15:23;;;;;;;16.98;9.57;;;;;;;;;;6319554;28;20346;-90
2023/07/24 05:18:25;;;;;;;16.05;9.55;;;;;;;;;;6316716;28;20108;-90
2023/07/24 05:21:26;;;;;;;17.17;10.25;;;;;;;;;;6319765;28;20269;-90
2023/07/24 05:24:28;;;;;;;15.82;9.93;;;;;;;;;;6317558;27;20244;-84
2023/07/24 05:27:30;;;;;;;17.17;10.23;;;;;;;;;;6318133;28;20376;-91
2023/07/24 05:30:33;;;;;;;18.53;10.27;;;;;;;;;;6322362;28;20060;-87
2023/07/24 05:33:35;;;;;;;21.13;10.20;;;;;;;;;;6324403;28;20055;-91
2023/07/24 05:36:37;;;;;;;13.90;8.75;;;;;;;;;;6323479;28;20067;-84
2023/07/24 05:39:38;;;;;;;17.63;9.68;;;;;;;;;;6322671;28;20052;-83
2023/07/24 05:42:43;;;;;;;18.15;10.25;;;;;;;;;;6323721;28;20067;-84
2023/07/24 05:45:46;;;;;;;14.30;9.32;;;;;;;;;;6327392;28;20048;-84
2023/07/24 05:48:47;;;;;;;17.63;9.57;;;;;;;;;;6325752;28;20048;-84
2023/07/24 05:51:49;;;;;;;17.33;10.25;;;;;;;;;;6326937;28;20053;-85
2023/07/24 05:54:50;;;;;;;16.77;10.02;;;;;;;;;;6326356;28;20230;-85
2023/07/24 05:57:52;;;;;;;16.90;10.23;;;;;;;;;;6321317;28;20082;-85
2023/07/24 06:00:55;;;;;;;17.13;10.15;;;;;;;;;;6323070;28;20326;-84
2023/07/24 06:03:57;;;;;;;17.10;9.77;;;;;;;;;;6321914;28;20056;-84
2023/07/24 06:06:58;;;;;;;19.25;9.75;;;;;;;;;;6320110;28;20063;-84
2023/07/24 06:10:00;;;;;;;16.67;9.57;;;;;;;;;;6318069;28;20109;-80
2023/07/24 06:13:01;;;;;;;13.10;8.95;;;;;;;;;;6321141;28;20044;-82
2023/07/24 06:16:04;;;;;;;20.88;10.45;;;;;;;;;;6322399;28;20213;-83
2023/07/24 06:19:05;;;;;;;;;;;;;;;;;;6322371;28;20048;-82
2023/07/24 06:22:07;;;;;;;15.18;9.18;;;;;;;;;;6319084;28;19924;-82
2023/07/24 06:25:09;;;;;;;16.48;9.45;;;;;;;;;;6321776;28;20058;-82
2023/07/24 06:28:10;;;;;;;14.48;9.52;;;;;;;;;;6322287;28;20337;-82
2023/07/24 06:31:13;;;;;;;16.40;9.57;;;;;;;;;;6326133;28;20152;-82
2023/07/24 06:34:15;;;;;;;16.70;10.13;;;;;;;;;;6320160;28;20258;-83
2023/07/24 06:37:16;;;;;;;21.00;10.68;;;;;;;;;;6321406;27;21972;-80
2023/07/24 06:40:18;;;;;;;16.30;9.80;;;;;;;;;;6320952;28;20074;-82
2023/07/24 06:43:19;;;;;;;21.67;10.43;;;;;;;;;;6321705;28;20308;-82
2023/07/24 06:46:22;;;;;;;19.38;9.93;;;;;;;;;;6323615;27;20052;-82
2023/07/24 06:49:24;;;;;;;15.77;9.65;;;;;;;;;;6322290;28;20324;-82
2023/07/24 06:52:25;;;;;;;19.45;10.38;;;;;;;;;;6323796;28;20259;-82
2023/07/24 06:55:27;;;;;;;20.33;10.38;;;;;;;;;;6323117;28;20056;-81
2023/07/24 06:58:28;;;;;;;17.60;9.63;;;;;;;;;;6325451;27;21903;-82
2023/07/24 07:01:31;;;;;;;16.42;9.38;;;;;;;;;;6324777;28;20039;-82
2023/07/24 07:04:33;;;;;;;16.95;10.27;;;;;;;;;;6322823;28;20384;-83
2023/07/24 07:07:34;;;;;;;17.30;10.38;;;;;;;;;;6321164;28;20062;-82
2023/07/24 07:10:36;;;;;;;16.33;9.75;;;;;;;;;;6319511;28;20056;-82
2023/07/24 07:13:37;;;;;;;19.88;10.98;;;;;;;;;;6318854;28;20046;-81
2023/07/24 07:16:40;;;;;;;17.75;10.68;;;;;;;;;;6318688;28;20059;-82
2023/07/24 07:19:42;;;;;;;16.33;10.13;;;;;;;;;;6323021;28;20059;-83
2023/07/24 07:22:43;;;;;;;17.95;10.60;;;;;;;;;;6318002;28;20138;-82
2023/07/24 07:25:45;;;;;;;17.05;10.50;;;;;;;;;;6309424;28;20055;-84
2023/07/24 07:28:47;;;;;;;17.92;10.40;;;;;;;;;;6322105;28;20085;-82
2023/07/24 07:31:50;;;;;;;17.33;10.02;;;;;;;;;;6319891;28;20083;-84
2023/07/24 07:34:51;;;;;;;14.88;8.95;;;;;;;;;;6324086;28;20054;-84
2023/07/24 07:37:53;;;;;;;16.50;9.02;;;;;;;;;;6322987;28;20044;-83
2023/07/24 07:40:55;;;;;;;17.15;9.68;;;;;;;;;;6325446;28;20036;-83
2023/07/24 07:43:56;;;;;;;16.23;9.02;;;;;;;;;;6324300;28;20111;-83
2023/07/24 07:46:59;;;;;;;16.60;9.77;;;;;;;;;;6322115;28;20056;-83
2023/07/24 07:50:00;;;;;;;17.58;9.88;;;;;;;;;;6317667;27;20450;-83
2023/07/24 07:53:02;;;;;;;14.80;9.07;;;;;;;;;;6321623;28;20048;-81
2023/07/24 07:56:03;;;;;;;21.85;9.70;;;;;;;;;;6319772;28;20427;-82
2023/07/24 07:59:05;;;;;;;14.25;8.52;;;;;;;;;;6321657;28;20048;-80
2023/07/24 08:02:08;;;;;;;13.25;8.75;;;;;;;;;;6327400;28;20051;-83
2023/07/24 08:05:10;;;;;;;15.23;8.95;;;;;;;;;;6324904;28;20077;-83
2023/07/24 08:08:11;;;;;;;14.77;9.50;;;;;;;;;;6320962;27;20116;-83
2023/07/24 08:11:13;;;;;;;17.85;8.90;;;;;;;;;;6320326;28;20047;-83
2023/07/24 08:14:14;;;;;;;15.15;9.73;;;;;;;;;;6321654;28;20068;-82
2023/07/24 08:17:17;;;;;;;19.15;10.68;;;;;;;;;;6322499;28;20060;-82
2023/07/24 08:20:18;;;;;;;;;;;;;;;;;;6318594;28;20262;-81
2023/07/24 08:23:20;;;;;;;14.82;8.30;;;;;;;;;;6317916;28;19924;-81
2023/07/24 08:26:21;;;;;;;18.25;9.20;;;;;;;;;;6319806;28;20240;-81
2023/07/24 08:29:23;;;;;;;17.40;10.18;;;;;;;;;;6319697;28;20052;-81
2023/07/24 08:32:25;;;;;;;13.25;8.48;;;;;;;;;;6322685;28;20064;-81
2023/07/24 08:35:27;;;;;;;;;;;;;;;;;;6321826;28;20055;-81
2023/07/24 08:38:28;;;;;;;18.10;9.38;;;;;;;;;;6321686;28;19922;-81
2023/07/24 08:41:32;;;;;;;14.70;9.25;;;;;;;;;;6322312;28;20055;-81
2023/07/24 08:44:33;;;;;;;15.30;9.15;;;;;;;;;;6319569;28;20323;-80
2023/07/24 08:47:36;;;;;;;14.38;8.88;;;;;;;;;;6318229;28;20055;-81
2023/07/24 08:50:38;;;;;;;13.98;9.20;;;;;;;;;;6322616;28;20044;-81
2023/07/24 08:53:40;;;;;;;15.75;8.68;;;;;;;;;;6323175;28;20052;-81
2023/07/24 08:56:47;;;;;;;16.35;8.88;;;;;;;;;;6321893;28;20056;-82
2023/07/24 08:59:48;;;;;;;15.63;9.23;;;;;;;;;;6321985;28;20075;-81
2023/07/24 09:02:51;;;;;;;13.73;9.18;;;;;;;;;;6322502;28;20051;-81
2023/07/24 09:05:53;;;;;;;15.35;9.80;;;;;;;;;;6324927;28;20044;-81
2023/07/24 09:08:54;;;;;;;14.90;8.77;;;;;;;;;;6326811;28;20575;-81
2023/07/24 09:11:58;;;;;;;15.60;10.13;;;;;;;;;;6321740;28;20048;-81
2023/07/24 09:15:03;;;;;;;14.05;9.35;;;;;;;;;;6326186;28;20036;-81
2023/07/24 09:18:06;;;;;;;13.45;9.00;;;;;;;;;;6327894;28;20052;-82
2023/07/24 09:21:07;;;;;;;17.85;10.73;;;;;;;;;;6323039;28;20047;-81
2023/07/24 09:24:12;;;;;;;14.65;9.23;;;;;;;;;;6323858;28;20044;-81
2023/07/24 09:27:14;;;;;;;13.63;8.73;;;;;;;;;;6320508;28;20628;-81
2023/07/24 09:30:16;;;;;;;16.75;8.27;;;;;;;;;;6322059;28;20051;-81
2023/07/24 09:33:19;;;;;;;17.15;9.68;;;;;;;;;;6326164;28;20048;-81
2023/07/24 09:36:20;;;;;;;;;;;;;;;;;;6323989;28;20043;-81
2023/07/24 09:39:25;;;;;;;14.48;9.32;;;;;;;;;;6328343;28;19943;-83
2023/07/24 09:42:30;;;;;;;15.18;9.68;;;;;;;;;;6325322;28;20048;-82
2023/07/24 09:45:32;;;;;;;15.07;9.68;;;;;;;;;;6325821;28;20074;-82
2023/07/24 09:48:35;;;;;;;15.35;9.98;;;;;;;;;;6327088;28;20056;-81
2023/07/24 09:51:40;;;;;;;15.38;9.70;;;;;;;;;;6324100;28;20052;-81
2023/07/24 09:54:46;;;;;;;16.52;9.00;;;;;;;;;;6324868;28;20052;-81
2023/07/24 09:57:49;;;;;;;13.68;8.43;;;;;;;;;;6324595;28;20052;-82
2023/07/24 10:00:51;;;;;;;14.10;9.20;;;;;;;;;;6327767;28;20058;-81
2023/07/24 10:03:54;;;;;;;15.25;9.00;;;;;;;;;;6324578;28;20052;-82
2023/07/24 10:06:55;;;;;;;19.80;9.73;;;;;;;;;;6324918;28;20094;-81
2023/07/24 10:09:57;;;;;;;14.35;9.25;;;;;;;;;;6325531;28;20332;-81
2023/07/24 10:12:59;;;;;;;15.27;8.83;;;;;;;;;;6326458;28;20084;-81
2023/07/24 10:16:03;;;;;;;15.65;9.73;;;;;;;;;;6324672;28;20058;-81
2023/07/24 10:19:13;;;;;;;16.90;10.60;;;;;;;;;;6328287;28;20044;-82
2023/07/24 10:22:18;;;;;;;17.52;9.70;;;;;;;;;;6326545;28;20500;-81
2023/07/24 10:25:30;;;;;;;16.83;9.20;;;;;;;;;;6323339;28;20296;-81
2023/07/24 10:28:33;;;;;;;17.73;10.57;;;;;;;;;;6324526;28;20121;-81
2023/07/24 10:31:34;;;;;;;21.08;10.05;;;;;;;;;;6323427;28;20056;-83
2023/07/24 10:34:40;;;;;;;17.27;9.95;;;;;;;;;;6323457;28;20850;-80
2023/07/24 10:37:41;;;;;;;18.95;10.05;;;;;;;;;;6319304;28;20056;-82
2023/07/24 10:40:44;;;;;;;20.17;9.50;;;;;;;;;;6322412;27;20377;-81
2023/07/24 10:43:46;;;;;;;14.60;8.60;;;;;;;;;;6322784;28;20079;-80
2023/07/24 10:46:47;;;;;;;15.48;9.07;;;;;;;;;;6320612;28;20048;-79
2023/07/24 10:49:51;;;;;;;15.32;8.98;;;;;;;;;;6325867;28;20056;-83
2023/07/24 10:52:52;;;;;;;15.85;9.32;;;;;;;;;;6319309;28;20232;-82
2023/07/24 10:55:53;;;;;;;14.30;9.32;;;;;;;;;;6325482;28;20055;-81
2023/07/24 10:58:55;;;;;;;16.02;8.85;;;;;;;;;;6322441;28;20058;-84
2023/07/24 11:01:57;;;;;;;15.18;8.95;;;;;;;;;;6324328;28;20090;-82
2023/07/24 11:05:01;;;;;;;14.10;9.23;;;;;;;;;;6324021;28;20093;-83
2023/07/24 11:08:08;;;;;;;14.35;9.10;;;;;;;;;;6321867;28;20044;-82
2023/07/24 11:11:12;;;;;;;16.05;8.85;;;;;;;;;;6323142;28;20044;-85
2023/07/24 11:14:14;;;;;;;15.25;8.93;;;;;;;;;;6323945;28;20166;-83
2023/07/24 11:17:16;;;;;;;14.07;8.30;;;;;;;;;;6326973;28;20039;-85
2023/07/24 11:20:19;;;;;;;16.15;8.77;;;;;;;;;;6326520;28;20080;-83
2023/07/24 11:23:20;;;;;;;;;;;;;;;;;;6323178;28;20130;-85
2023/07/24 11:26:22;;;;;;;14.38;8.50;;;;;;;;;;6323324;28;19923;-85
2023/07/24 11:29:24;;;;;;;13.88;8.93;;;;;;;;;;6324026;28;20344;-85
2023/07/24 11:32:25;;;;;;;13.03;8.50;;;;;;;;;;6324037;28;20044;-83
2023/07/24 11:35:28;;;;;;;14.50;7.95;;;;;;;;;;6324780;28;20052;-84
2023/07/24 11:38:29;;;;;;;;;;;;;;;;;;6325566;27;20048;-96
2023/07/24 11:41:32;;;;;;;14.90;8.13;;;;;;;;;;6328130;28;19917;-90
2023/07/24 11:44:33;;;;;;;17.42;9.18;;;;;;;;;;6320854;28;20044;-78
2023/07/24 11:47:42;;;;;;;16.08;9.07;;;;;;;;;;6321155;28;20347;-82
2023/07/24 11:50:45;;;;;;;13.02;8.50;;;;;;;;;;6327476;28;20062;-85
2023/07/24 11:53:47;;;;;;;14.68;9.02;;;;;;;;;;6323878;28;20043;-85
2023/07/24 11:56:48;;;;;;;16.00;9.15;;;;;;;;;;6322040;28;20340;-86
2023/07/24 11:59:50;;;;;;;16.70;8.88;;;;;;;;;;6322140;28;20086;-84
2023/07/24 12:02:51;;;;;;;17.25;10.77;;;;;;;;;;6322542;28;20052;-87
2023/07/24 12:05:54;;;;;;;27.95;15.13;;;;;;;;;;6330651;28;20056;-82
2023/07/24 12:09:02;;;;;;;16.50;8.93;;;;;;;;;;6324280;28;20097;-86
2023/07/24 12:12:05;;;;;;;14.05;7.40;;;;;;;;;;6325108;28;20248;-85
2023/07/24 12:15:07;;;;;;;10.97;6.70;;;;;;;;;;6329074;28;20079;-85
2023/07/24 12:18:08;;;;;;;31.17;17.48;;;;;;;;;;6327444;28;20232;-85
2023/07/24 12:21:11;;;;;;;24.90;15.20;;;;;;;;;;6325344;28;20066;-86
2023/07/24 12:24:13;;;;;;;8.73;3.75;;;;;;;;;;6327495;28;20252;-82
2023/07/24 12:27:14;;;;;;;4.00;2.70;;;;;;;;;;6327565;27;20363;-83
2023/07/24 12:30:16;;;;;;;5.43;2.30;;;;;;;;;;6326104;28;20048;-85
2023/07/24 12:33:17;;;;;;;5.55;2.90;;;;;;;;;;6327834;28;20067;-86
2023/07/24 12:36:20;;;;;;;7.28;2.83;;;;;;;;;;6323831;28;20344;-85
2023/07/24 12:39:22;;;;;;;5.82;2.97;;;;;;;;;;6324939;28;21106;-89
2023/07/24 12:42:24;;;;;;;5.50;3.20;;;;;;;;;;6328190;28;20058;-89
2023/07/24 12:45:25;;;;;;;6.95;3.95;;;;;;;;;;6322586;28;20066;-90
2023/07/24 12:48:27;;;;;;;10.05;4.50;;;;;;;;;;6325577;28;20056;-91
2023/07/24 12:51:30;;;;;;;8.52;4.80;;;;;;;;;;6323264;27;20051;-88
2023/07/24 12:54:32;;;;;;;10.45;5.63;;;;;;;;;;6326137;28;20436;-85
2023/07/24 12:57:33;;;;;;;8.35;4.63;;;;;;;;;;6324737;28;20056;-91
2023/07/24 13:00:35;;;;;;;10.05;5.07;;;;;;;;;;6322997;27;20052;-91
2023/07/24 13:03:37;;;;;;;9.15;5.72;;;;;;;;;;6328536;28;20200;-85
2023/07/24 13:06:40;;;;;;;8.30;5.28;;;;;;;;;;6324045;28;20051;-93
2023/07/24 13:09:41;;;;;;;9.90;5.50;;;;;;;;;;6325811;28;20319;-85
2023/07/24 13:12:44;;;;;;;9.38;5.55;;;;;;;;;;6321915;28;20059;-86
2023/07/24 13:15:45;;;;;;;11.73;5.70;;;;;;;;;;6320978;28;20311;-85
2023/07/24 13:18:47;;;;;;;9.88;5.78;;;;;;;;;;6322717;28;20055;-85
2023/07/24 13:21:50;;;;;;;10.10;5.25;;;;;;;;;;6322601;28;20394;-86
2023/07/24 13:24:51;;;;;;;8.57;4.97;;;;;;;;;;6324508;28;20048;-85
2023/07/24 13:27:53;;;;;;;10.88;6.30;;;;;;;;;;6321722;28;20373;-85
2023/07/24 13:30:54;;;;;;;12.27;6.03;;;;;;;;;;6322306;28;20224;-85
2023/07/24 13:33:56;;;;;;;10.02;6.30;;;;;;;;;;6321145;28;20062;-85
2023/07/24 13:36:59;;;;;;;11.13;6.78;;;;;;;;;;6318123;28;20276;-85
2023/07/24 13:40:00;;;;;;;13.52;8.48;;;;;;;;;;6323330;28;20056;-86
2023/07/24 13:43:03;;;;;;;41.92;28.40;;;;;;;;;;6321781;28;20355;-85
2023/07/24 13:46:05;;;;;;;22.30;11.63;;;;;;;;;;6320798;27;20400;-85
2023/07/24 13:49:06;;;;;;;13.73;6.70;;;;;;;;;;6322174;28;20407;-85
2023/07/24 13:52:09;;;;;;;11.07;6.28;;;;;;;;;;6324448;28;20052;-83
2023/07/24 13:55:10;;;;;;;;;;;;;;;;;;6333190;28;20119;-83
2023/07/24 13:58:11;;;;;;;11.30;6.47;;;;;;;;;;6326701;28;19923;-83
2023/07/24 14:01:13;;;;;;;9.43;6.15;;;;;;;;;;6318892;28;20268;-82
2023/07/24 14:04:15;;;;;;;10.15;5.63;;;;;;;;;;6323695;28;20323;-82
2023/07/24 14:07:18;;;;;;;10.13;6.30;;;;;;;;;;6326125;28;20170;-82
2023/07/24 14:10:19;;;;;;;;;;;;;;;;;;6326101;28;20063;-84
2023/07/24 14:13:20;;;;;;;9.48;5.63;;;;;;;;;;6324513;28;19916;-81
2023/07/24 14:16:22;;;;;;;9.70;6.07;;;;;;;;;;6324239;28;20066;-85
2023/07/24 14:19:24;;;;;;;11.95;5.95;;;;;;;;;;6325297;28;20351;-82
2023/07/24 14:22:27;;;;;;;8.98;6.03;;;;;;;;;;6324762;28;20075;-82
2023/07/24 14:25:28;;;;;;;;;;;;;;;;;;6325281;28;20055;-84
2023/07/24 14:28:29;;;;;;;9.90;5.93;;;;;;;;;;6325900;28;19931;-84
2023/07/24 14:31:31;;;;;;;7.93;5.18;;;;;;;;;;6323972;28;20282;-84
2023/07/24 14:34:32;;;;;;;9.35;5.00;;;;;;;;;;6323543;28;20332;-81
2023/07/24 14:37:35;;;;;;;9.93;5.97;;;;;;;;;;6324931;28;20051;-83
2023/07/24 14:40:36;;;;;;;;;;;;;;;;;;6321520;28;20049;-81
2023/07/24 14:43:38;;;;;;;18.75;13.60;;;;;;;;;;6324780;28;19916;-84
2023/07/24 14:46:39;;;;;;;12.65;7.45;;;;;;;;;;6325587;28;20056;-87
2023/07/24 14:49:41;;;;;;;13.25;8.55;;;;;;;;;;6324238;28;20047;-80
2023/07/24 14:52:44;;;;;;;8.57;5.32;;;;;;;;;;6316373;28;20377;-83
2023/07/24 14:55:45;;;;;;;12.25;5.25;;;;;;;;;;6325145;28;20052;-83
2023/07/24 14:58:47;;;;;;;10.20;5.25;;;;;;;;;;6322071;27;20052;-82
2023/07/24 15:01:48;;;;;;;9.90;5.95;;;;;;;;;;6322677;28;20049;-83
2023/07/24 15:04:49;;;;;;;10.77;5.80;;;;;;;;;;6323424;28;20065;-83
2023/07/24 15:07:52;;;;;;;11.07;5.30;;;;;;;;;;6326195;28;20238;-82
2023/07/24 15:10:54;;;;;;;10.82;5.82;;;;;;;;;;6321587;27;20340;-82
2023/07/24 15:13:56;;;;;;;8.77;5.32;;;;;;;;;;6326995;28;20044;-82
2023/07/24 15:16:57;;;;;;;8.80;5.20;;;;;;;;;;6323916;28;20090;-82
2023/07/24 15:19:59;;;;;;;10.23;5.65;;;;;;;;;;6322962;28;20063;-82
2023/07/24 15:23:01;;;;;;;9.85;5.35;;;;;;;;;;6324250;28;20051;-82
2023/07/24 15:26:03;;;;;;;11.18;6.10;;;;;;;;;;6319824;28;20044;-82
2023/07/24 15:29:05;;;;;;;11.25;5.65;;;;;;;;;;6326798;28;20054;-82
2023/07/24 15:32:06;;;;;;;11.90;5.63;;;;;;;;;;6323220;28;20238;-82
2023/07/24 15:35:08;;;;;;;8.82;5.50;;;;;;;;;;6323302;28;20046;-82
2023/07/24 15:38:11;;;;;;;8.50;5.50;;;;;;;;;;6321555;28;20048;-82
2023/07/24 15:41:12;;;;;;;8.98;4.97;;;;;;;;;;6322015;28;20047;-82
2023/07/24 15:44:14;;;;;;;9.90;5.50;;;;;;;;;;6320965;28;20048;-82
2023/07/24 15:47:15;;;;;;;8.93;5.50;;;;;;;;;;6324578;28;20102;-81
2023/07/24 15:50:17;;;;;;;8.70;5.82;;;;;;;;;;6323843;28;20060;-82
2023/07/24 15:53:20;;;;;;;8.20;4.85;;;;;;;;;;6320670;28;20056;-82
2023/07/24 15:56:22;;;;;;;15.38;6.63;;;;;;;;;;6325797;28;20060;-82
2023/07/24 15:59:23;;;;;;;10.38;6.18;;;;;;;;;;6321078;28;20040;-82
2023/07/24 16:02:25;;;;;;;9.80;6.40;;;;;;;;;;6323619;28;20051;-81
2023/07/24 16:05:26;;;;;;;10.38;6.13;;;;;;;;;;6320892;28;20284;-82
2023/07/24 16:08:29;;;;;;;9.05;5.80;;;;;;;;;;6321692;28;20057;-82
2023/07/24 16:11:32;;;;;;;11.23;5.90;;;;;;;;;;6324884;28;20048;-83
2023/07/24 16:14:33;;;;;;;11.63;5.80;;;;;;;;;;6324874;28;20062;-82
2023/07/24 16:17:35;;;;;;;11.43;6.55;;;;;;;;;;6322430;28;20055;-83
2023/07/24 16:20:37;;;;;;;10.13;5.88;;;;;;;;;;6321214;28;20051;-84
2023/07/24 16:23:39;;;;;;;11.05;6.55;;;;;;;;;;6323527;28;20055;-85
2023/07/24 16:26:42;;;;;;;11.48;6.18;;;;;;;;;;6321365;28;21738;-86
2023/07/24 16:29:43;;;;;;;11.17;5.87;;;;;;;;;;6320189;28;20052;-84
2023/07/24 16:32:45;;;;;;;10.23;6.25;;;;;;;;;;6323724;28;20059;-83
2023/07/24 16:35:46;;;;;;;11.73;6.10;;;;;;;;;;6321835;28;20348;-83
2023/07/24 16:38:49;;;;;;;10.00;6.25;;;;;;;;;;6325367;27;20044;-86
2023/07/24 16:41:51;;;;;;;13.40;5.85;;;;;;;;;;6324380;28;20055;-81
2023/07/24 16:44:52;;;;;;;10.45;5.95;;;;;;;;;;6321160;28;20047;-79
2023/07/24 16:47:54;;;;;;;10.30;6.18;;;;;;;;;;6322716;28;20146;-81
2023/07/24 16:50:55;;;;;;;10.23;6.20;;;;;;;;;;6323683;28;20051;-81
2023/07/24 16:53:58;;;;;;;10.02;6.65;;;;;;;;;;6321695;28;20059;-79
2023/07/24 16:56:59;;;;;;;;;;;;;;;;;;6324609;28;20344;-80
2023/07/24 17:00:01;;;;;;;11.32;6.90;;;;;;;;;;6316907;28;20183;-79
2023/07/24 17:03:02;;;;;;;12.05;7.20;;;;;;;;;;6320614;28;20056;-80
2023/07/24 17:06:04;;;;;;;11.75;6.68;;;;;;;;;;6322026;28;20064;-75
2023/07/24 17:09:07;;;;;;;11.93;7.38;;;;;;;;;;6319252;28;20068;-79
2023/07/24 17:12:08;;;;;;;11.50;7.13;;;;;;;;;;6321174;28;20052;-84
2023/07/24 17:15:10;;;;;;;12.73;7.35;;;;;;;;;;6319652;28;20046;-84
2023/07/24 17:18:12;;;;;;;13.65;6.90;;;;;;;;;;6313413;28;20048;-84
2023/07/24 17:21:13;;;;;;;9.93;5.38;;;;;;;;;;6322243;28;20052;-83
2023/07/24 17:24:16;;;;;;;12.45;7.40;;;;;;;;;;6315724;28;20448;-84
2023/07/24 17:27:17;;;;;;;11.98;6.28;;;;;;;;;;6321651;28;20061;-83
2023/07/24 17:30:19;;;;;;;11.65;6.78;;;;;;;;;;6323323;28;20047;-82
2023/07/24 17:33:20;;;;;;;10.95;6.78;;;;;;;;;;6328150;28;20060;-87
2023/07/24 17:36:22;;;;;;;10.52;6.82;;;;;;;;;;6321699;28;20078;-80
2023/07/24 17:39:24;;;;;;;9.93;6.13;;;;;;;;;;6325295;28;20044;-80
2023/07/24 17:42:26;;;;;;;10.48;6.50;;;;;;;;;;6321022;28;20047;-80
2023/07/24 17:45:27;;;;;;;9.70;5.75;;;;;;;;;;6323862;28;20278;-79
2023/07/24 17:48:29;;;;;;;10.20;6.00;;;;;;;;;;6323001;28;20043;-80
2023/07/24 17:51:31;;;;;;;9.57;5.57;;;;;;;;;;6320642;28;20063;-79
2023/07/24 17:54:34;;;;;;;10.82;5.75;;;;;;;;;;6323300;28;20060;-81
2023/07/24 17:57:35;;;;;;;11.05;5.93;;;;;;;;;;6326168;28;20075;-79
2023/07/24 18:00:40;;;;;;;9.68;5.93;;;;;;;;;;6320939;28;20058;-93